createdAt,value
2017-04-02T00:00:19.681Z,0
2017-04-02T00:00:48.118Z,0
2017-04-02T00:01:16.389Z,0
2017-04-02T00:03:39.566Z,0
2017-04-02T00:04:07.724Z,0
2017-04-02T00:06:19.537Z,0
2017-04-02T00:06:47.713Z,0
2017-04-02T00:07:16.176Z,0
2017-04-02T00:07:45.115Z,0
2017-04-02T00:08:13.402Z,0
2017-04-02T00:08:41.455Z,0
2017-04-02T00:09:10.502Z,0
2017-04-02T00:13:39.414Z,0
2017-04-02T00:14:08.172Z,0
2017-04-02T00:14:36.543Z,0
2017-04-02T00:15:04.974Z,0
2017-04-02T00:15:33.268Z,0
2017-04-02T00:16:01.368Z,0
2017-04-02T00:16:30.544Z,0
2017-04-02T00:16:58.935Z,0
2017-04-02T00:17:29.085Z,0
2017-04-02T00:17:57.287Z,0
2017-04-02T00:20:08.753Z,0
2017-04-02T00:20:37.026Z,0
2017-04-02T00:21:05.960Z,0
2017-04-02T00:21:34.413Z,0
2017-04-02T00:22:02.561Z,0
2017-04-02T00:22:31.444Z,0
2017-04-02T00:23:00.457Z,0
2017-04-02T00:23:28.749Z,0
2017-04-02T00:23:57.080Z,0
2017-04-02T00:27:09.057Z,0
2017-04-02T00:27:37.360Z,0
2017-04-02T00:29:11.149Z,0
2017-04-02T00:29:40.091Z,0
2017-04-02T00:30:08.919Z,0
2017-04-02T00:30:37.242Z,0
2017-04-02T00:31:05.723Z,0
2017-04-02T00:34:28.814Z,0
2017-04-02T00:34:57.131Z,0
2017-04-02T00:35:25.645Z,0
2017-04-02T00:42:48.632Z,0
2017-04-02T00:43:17.064Z,0
2017-04-02T00:43:45.212Z,0
2017-04-02T00:44:14.227Z,0
2017-04-02T00:44:42.469Z,0
2017-04-02T00:45:10.790Z,0
2017-04-02T00:45:39.911Z,0
2017-04-02T00:49:08.283Z,0
2017-04-02T00:49:36.779Z,0
2017-04-02T00:51:10.847Z,0
2017-04-02T00:52:28.015Z,0
2017-04-02T00:52:56.318Z,0
2017-04-02T00:54:08.257Z,0
2017-04-02T00:54:36.158Z,0
2017-04-02T00:55:05.073Z,0
2017-04-02T01:00:28.196Z,0
2017-04-02T01:00:56.485Z,0
2017-04-02T01:01:24.530Z,0
2017-04-02T01:01:53.692Z,0
2017-04-02T01:02:22.193Z,0
2017-04-02T01:02:50.497Z,0
2017-04-02T01:03:19.455Z,0
2017-04-02T01:03:47.679Z,0
2017-04-02T01:04:15.998Z,0
2017-04-02T01:04:45.032Z,0
2017-04-02T01:05:13.412Z,0
2017-04-02T01:06:48.073Z,0
2017-04-02T01:07:16.168Z,0
2017-04-02T01:10:27.448Z,0
2017-04-02T01:10:55.806Z,0
2017-04-02T01:11:24.818Z,0
2017-04-02T01:12:36.088Z,0
2017-04-02T01:14:47.881Z,0
2017-04-02T01:15:16.229Z,0
2017-04-02T01:15:44.580Z,0
2017-04-02T01:17:07.748Z,0
2017-04-02T01:17:36.225Z,0
2017-04-02T01:18:58.953Z,0
2017-04-02T01:21:27.677Z,0
2017-04-02T01:22:50.388Z,0
2017-04-02T01:23:18.622Z,0
2017-04-02T01:23:47.286Z,0
2017-04-02T01:24:15.384Z,0
2017-04-02T01:24:43.447Z,0
2017-04-02T01:25:11.819Z,0
2017-04-02T01:25:41.069Z,0
2017-04-02T01:26:10.236Z,0
2017-04-02T01:26:38.798Z,0
2017-04-02T01:27:50.202Z,0
2017-04-02T01:28:18.439Z,0
2017-04-02T01:28:47.474Z,0
2017-04-02T01:29:15.830Z,0
2017-04-02T01:29:44.103Z,0
2017-04-02T01:30:12.993Z,0
2017-04-02T01:30:42.944Z,0
2017-04-02T01:31:12.864Z,0
2017-04-02T01:34:47.635Z,0
2017-04-02T01:35:15.784Z,0
2017-04-02T01:35:43.840Z,0
2017-04-02T01:37:07.293Z,0
2017-04-02T01:38:29.991Z,0
2017-04-02T01:38:58.326Z,0
2017-04-02T01:39:27.304Z,0
2017-04-02T01:39:55.502Z,0
2017-04-02T01:40:23.950Z,0
2017-04-02T01:43:01.302Z,0
2017-04-02T01:43:29.853Z,0
2017-04-02T01:43:58.659Z,0
2017-04-02T01:47:17.096Z,0
2017-04-02T01:47:45.578Z,0
2017-04-02T01:48:14.732Z,0
2017-04-02T01:48:42.963Z,0
2017-04-02T01:49:11.370Z,0
2017-04-02T01:50:39.465Z,0
2017-04-02T01:51:08.152Z,0
2017-04-02T01:51:36.498Z,0
2017-04-02T01:52:59.105Z,0
2017-04-02T01:53:28.317Z,0
2017-04-02T01:53:56.624Z,0
2017-04-02T01:54:24.842Z,0
2017-04-02T01:55:36.684Z,0
2017-04-02T01:56:04.971Z,0
2017-04-02T02:00:16.508Z,0
2017-04-02T02:00:44.618Z,0
2017-04-02T02:01:14.002Z,0
2017-04-02T02:01:42.386Z,0
2017-04-02T02:02:12.292Z,0
2017-04-02T02:02:40.608Z,0
2017-04-02T02:03:09.044Z,0
2017-04-02T02:05:26.580Z,0
2017-04-02T02:05:54.633Z,0
2017-04-02T02:13:06.330Z,0
2017-04-02T02:13:34.507Z,0
2017-04-02T02:18:45.789Z,0
2017-04-02T02:19:14.006Z,0
2017-04-02T02:19:42.961Z,0
2017-04-02T02:23:06.189Z,0
2017-04-02T02:23:34.570Z,0
2017-04-02T02:24:02.871Z,0
2017-04-02T02:24:31.756Z,0
2017-04-02T02:25:00.026Z,0
2017-04-02T02:25:28.046Z,0
2017-04-02T02:25:56.331Z,0
2017-04-02T02:26:24.768Z,0
2017-04-02T02:26:53.144Z,0
2017-04-02T02:27:21.389Z,0
2017-04-02T02:28:38.450Z,0
2017-04-02T02:30:55.893Z,0
2017-04-02T02:31:24.154Z,0
2017-04-02T02:32:35.471Z,0
2017-04-02T02:33:03.633Z,0
2017-04-02T02:33:32.559Z,0
2017-04-02T02:34:55.885Z,0
2017-04-02T02:36:29.881Z,0
2017-04-02T02:36:58.261Z,0
2017-04-02T02:42:04.335Z,0
2017-04-02T02:42:32.674Z,0
2017-04-02T02:43:00.991Z,0
2017-04-02T02:43:29.282Z,0
2017-04-02T02:43:58.366Z,0
2017-04-02T02:44:26.450Z,0
2017-04-02T02:44:55.482Z,0
2017-04-02T02:45:23.799Z,0
2017-04-02T02:47:35.486Z,0
2017-04-02T02:48:03.790Z,0
2017-04-02T02:49:15.919Z,0
2017-04-02T02:49:44.163Z,0
2017-04-02T02:50:12.560Z,0
2017-04-02T02:50:40.853Z,0
2017-04-02T02:52:15.240Z,0
2017-04-02T02:52:43.505Z,0
2017-04-02T02:53:55.431Z,0
2017-04-02T02:54:23.843Z,0
2017-04-02T02:54:51.974Z,0
2017-04-02T02:56:15.377Z,0
2017-04-02T02:56:43.390Z,0
2017-04-02T02:58:55.210Z,0
2017-04-02T02:59:23.335Z,0
2017-04-02T02:59:52.352Z,0
2017-04-02T03:00:20.570Z,0
2017-04-02T03:01:55.311Z,0
2017-04-02T03:02:23.486Z,0
2017-04-02T03:03:35.216Z,0
2017-04-02T03:04:03.559Z,0
2017-04-02T03:04:31.685Z,0
2017-04-02T03:05:00.740Z,0
2017-04-02T03:05:29.171Z,0
2017-04-02T03:05:57.544Z,0
2017-04-02T03:08:15.087Z,0
2017-04-02T03:08:43.393Z,0
2017-04-02T03:09:12.353Z,0
2017-04-02T03:09:40.749Z,0
2017-04-02T03:10:09.041Z,0
2017-04-02T03:10:37.277Z,0
2017-04-02T03:11:06.392Z,0
2017-04-02T03:11:34.602Z,0
2017-04-02T03:12:02.854Z,0
2017-04-02T03:12:32.024Z,0
2017-04-02T03:13:00.352Z,0
2017-04-02T03:13:28.567Z,0
2017-04-02T03:13:57.663Z,0
2017-04-02T03:14:25.969Z,0
2017-04-02T03:16:54.898Z,0
2017-04-02T03:17:23.405Z,0
2017-04-02T03:17:51.783Z,0
2017-04-02T03:18:20.231Z,0
2017-04-02T03:19:54.834Z,0
2017-04-02T03:20:23.018Z,0
2017-04-02T03:20:51.356Z,0
2017-04-02T03:21:20.333Z,0
2017-04-02T03:23:54.963Z,0
2017-04-02T03:24:23.216Z,0
2017-04-02T03:25:46.172Z,0
2017-04-02T03:26:14.454Z,0
2017-04-02T03:26:42.818Z,0
2017-04-02T03:27:54.069Z,0
2017-04-02T03:28:22.115Z,0
2017-04-02T03:28:50.508Z,0
2017-04-02T03:29:18.769Z,0
2017-04-02T03:29:47.160Z,0
2017-04-02T03:30:15.415Z,0
2017-04-02T03:33:44.471Z,0
2017-04-02T03:34:12.879Z,0
2017-04-02T03:34:41.268Z,0
2017-04-02T03:35:10.325Z,0
2017-04-02T03:35:38.499Z,0
2017-04-02T03:36:49.814Z,0
2017-04-02T03:38:24.396Z,0
2017-04-02T03:38:52.660Z,0
2017-04-02T03:39:21.502Z,0
2017-04-02T03:39:49.874Z,0
2017-04-02T03:41:23.823Z,0
2017-04-02T03:41:52.230Z,0
2017-04-02T03:42:21.196Z,0
2017-04-02T03:42:49.527Z,0
2017-04-02T03:43:17.863Z,0
2017-04-02T03:43:46.900Z,0
2017-04-02T03:44:15.062Z,0
2017-04-02T03:45:26.229Z,0
2017-04-02T03:45:55.405Z,0
2017-04-02T03:46:23.731Z,0
2017-04-02T03:46:51.813Z,0
2017-04-02T03:47:20.816Z,0
2017-04-02T03:47:49.858Z,0
2017-04-02T03:48:18.236Z,0
2017-04-02T03:48:46.476Z,0
2017-04-02T03:51:04.025Z,0
2017-04-02T03:51:32.400Z,0
2017-04-02T03:52:00.363Z,0
2017-04-02T03:52:29.540Z,0
2017-04-02T03:57:03.926Z,0
2017-04-02T03:57:32.286Z,0
2017-04-02T03:58:00.496Z,0
2017-04-02T03:58:29.573Z,0
2017-04-02T03:58:57.759Z,0
2017-04-02T03:59:25.900Z,0
2017-04-02T03:59:54.902Z,0
2017-04-02T04:01:23.768Z,0
2017-04-02T04:01:51.907Z,0
2017-04-02T04:04:03.714Z,0
2017-04-02T04:04:31.796Z,0
2017-04-02T04:05:43.591Z,0
2017-04-02T04:06:11.660Z,0
2017-04-02T04:06:40.718Z,0
2017-04-02T04:10:03.616Z,0
2017-04-02T04:10:31.807Z,0
2017-04-02T04:10:59.765Z,0
2017-04-02T04:11:27.989Z,0
2017-04-02T04:11:56.437Z,0
2017-04-02T04:12:24.579Z,0
2017-04-02T04:15:53.210Z,0
2017-04-02T04:16:21.504Z,0
2017-04-02T04:18:33.240Z,0
2017-04-02T04:19:01.504Z,0
2017-04-02T04:20:13.368Z,0
2017-04-02T04:20:41.647Z,0
2017-04-02T04:21:09.793Z,0
2017-04-02T04:21:38.724Z,0
2017-04-02T04:22:06.745Z,0
2017-04-02T04:22:35.877Z,0
2017-04-02T04:23:04.210Z,0
2017-04-02T04:24:15.194Z,0
2017-04-02T04:24:43.475Z,0
2017-04-02T04:25:11.724Z,0
2017-04-02T04:26:22.921Z,0
2017-04-02T04:26:50.914Z,0
2017-04-02T04:27:20.022Z,0
2017-04-02T04:28:43.146Z,0
2017-04-02T04:30:05.491Z,0
2017-04-02T04:34:22.891Z,0
2017-04-02T04:34:51.174Z,0
2017-04-02T04:37:02.740Z,0
2017-04-02T04:37:31.018Z,0
2017-04-02T04:38:42.805Z,0
2017-04-02T04:39:10.972Z,0
2017-04-02T04:41:22.885Z,0
2017-04-02T04:41:51.145Z,0
2017-04-02T04:42:20.001Z,0
2017-04-02T04:42:48.209Z,0
2017-04-02T04:43:16.359Z,0
2017-04-02T04:43:45.307Z,0
2017-04-02T04:44:13.614Z,0
2017-04-02T04:44:41.561Z,0
2017-04-02T04:45:09.777Z,0
2017-04-02T04:45:37.939Z,0
2017-04-02T04:46:06.086Z,0
2017-04-02T04:46:35.148Z,0
2017-04-02T04:50:52.565Z,0
2017-04-02T04:51:20.675Z,0
2017-04-02T04:54:32.291Z,0
2017-04-02T04:55:00.446Z,0
2017-04-02T04:55:29.502Z,0
2017-04-02T04:57:03.226Z,0
2017-04-02T04:57:31.272Z,0
2017-04-02T04:57:59.536Z,0
2017-04-02T04:58:27.833Z,0
2017-04-02T04:58:55.818Z,0
2017-04-02T04:59:24.740Z,0
2017-04-02T05:00:42.263Z,0
2017-04-02T05:01:10.554Z,0
2017-04-02T05:03:22.285Z,0
2017-04-02T05:03:50.491Z,0
2017-04-02T05:06:02.142Z,0
2017-04-02T05:06:31.020Z,0
2017-04-02T05:06:58.882Z,0
2017-04-02T05:07:27.766Z,0
2017-04-02T05:09:02.409Z,0
2017-04-02T05:09:30.713Z,0
2017-04-02T05:09:58.842Z,0
2017-04-02T05:11:22.026Z,0
2017-04-02T05:11:50.137Z,0
2017-04-02T05:13:02.002Z,0
2017-04-02T05:13:30.009Z,0
2017-04-02T05:15:41.923Z,0
2017-04-02T05:16:10.066Z,0
2017-04-02T05:17:21.888Z,0
2017-04-02T05:17:50.053Z,0
2017-04-02T05:20:01.441Z,0
2017-04-02T05:20:29.559Z,0
2017-04-02T05:20:57.609Z,0
2017-04-02T05:21:25.891Z,0
2017-04-02T05:21:54.063Z,0
2017-04-02T05:22:22.671Z,0
2017-04-02T05:22:51.638Z,0
2017-04-02T05:23:19.778Z,0
2017-04-02T05:23:48.667Z,0
2017-04-02T05:28:11.582Z,0
2017-04-02T05:28:39.646Z,0
2017-04-02T05:29:08.548Z,0
2017-04-02T05:33:31.348Z,0
2017-04-02T05:33:59.524Z,0
2017-04-02T05:34:28.194Z,0
2017-04-02T05:34:57.234Z,0
2017-04-02T05:35:25.384Z,0
2017-04-02T05:35:53.604Z,0
2017-04-02T05:36:22.703Z,0
2017-04-02T05:37:51.516Z,0
2017-04-02T05:38:19.778Z,0
2017-04-02T05:38:48.032Z,0
2017-04-02T05:39:16.956Z,0
2017-04-02T05:39:44.936Z,0
2017-04-02T05:40:13.947Z,0
2017-04-02T05:41:31.372Z,0
2017-04-02T05:41:59.356Z,0
2017-04-02T05:43:11.272Z,0
2017-04-02T05:43:39.333Z,0
2017-04-02T05:44:51.173Z,0
2017-04-02T05:45:19.343Z,0
2017-04-02T05:46:31.290Z,0
2017-04-02T05:46:59.554Z,0
2017-04-02T05:47:27.731Z,0
2017-04-02T05:47:56.705Z,0
2017-04-02T05:49:31.144Z,0
2017-04-02T05:49:59.131Z,0
2017-04-02T05:50:28.088Z,0
2017-04-02T05:50:56.353Z,0
2017-04-02T05:51:24.613Z,0
2017-04-02T05:51:53.662Z,0
2017-04-02T05:55:10.971Z,0
2017-04-02T05:55:39.131Z,0
2017-04-02T05:57:50.836Z,0
2017-04-02T06:02:18.462Z,0
2017-04-02T06:02:46.638Z,0
2017-04-02T06:03:14.746Z,0
2017-04-02T06:03:42.943Z,0
2017-04-02T06:04:11.955Z,0
2017-04-02T06:07:28.511Z,0
2017-04-02T06:07:57.533Z,0
2017-04-02T06:09:20.694Z,0
2017-04-02T06:09:48.667Z,0
2017-04-02T06:11:00.542Z,0
2017-04-02T06:11:28.690Z,0
2017-04-02T06:12:40.510Z,0
2017-04-02T06:13:08.654Z,0
2017-04-02T06:14:20.577Z,0
2017-04-02T06:14:48.791Z,0
2017-04-02T06:19:00.430Z,0
2017-04-02T06:19:28.502Z,0
2017-04-02T06:19:57.424Z,0
2017-04-02T06:20:25.700Z,0
2017-04-02T06:20:53.778Z,0
2017-04-02T06:21:22.564Z,0
2017-04-02T06:21:51.442Z,0
2017-04-02T06:22:20.333Z,0
2017-04-02T06:23:48.437Z,0
2017-04-02T06:25:00.217Z,0
2017-04-02T06:25:28.426Z,0
2017-04-02T06:26:40.101Z,0
2017-04-02T06:27:08.257Z,0
2017-04-02T06:29:20.205Z,0
2017-04-02T06:29:48.361Z,0
2017-04-02T06:31:00.174Z,0
2017-04-02T06:31:28.470Z,0
2017-04-02T06:31:56.744Z,0
2017-04-02T06:32:25.718Z,0
2017-04-02T06:34:00.146Z,0
2017-04-02T06:34:28.354Z,0
2017-04-02T06:34:56.529Z,0
2017-04-02T06:35:25.462Z,0
2017-04-02T06:35:53.451Z,0
2017-04-02T06:36:22.331Z,0
2017-04-02T06:36:51.352Z,0
2017-04-02T06:37:19.595Z,0
2017-04-02T06:37:47.769Z,0
2017-04-02T06:38:16.786Z,0
2017-04-02T06:38:45.662Z,0
2017-04-02T06:41:19.839Z,0
2017-04-02T06:41:48.056Z,0
2017-04-02T06:43:59.923Z,0
2017-04-02T06:44:28.094Z,0
2017-04-02T06:44:56.396Z,0
2017-04-02T06:45:25.320Z,0
2017-04-02T06:45:53.366Z,0
2017-04-02T06:46:22.228Z,0
2017-04-02T06:48:39.722Z,0
2017-04-02T06:49:07.997Z,0
2017-04-02T06:49:36.126Z,0
2017-04-02T06:50:04.377Z,0
2017-04-02T06:50:32.678Z,0
2017-04-02T06:51:00.696Z,0
2017-04-02T06:51:29.641Z,0
2017-04-02T06:51:57.921Z,0
2017-04-02T06:52:26.006Z,0
2017-04-02T06:52:54.082Z,0
2017-04-02T06:53:22.347Z,0
2017-04-02T06:53:50.421Z,0
2017-04-02T06:54:19.425Z,0
2017-04-02T06:54:47.640Z,0
2017-04-02T06:55:16.480Z,0
2017-04-02T06:56:39.561Z,0
2017-04-02T06:57:07.759Z,0
2017-04-02T06:58:19.535Z,0
2017-04-02T06:58:47.840Z,0
2017-04-02T06:59:15.877Z,0
2017-04-02T06:59:44.011Z,0
2017-04-02T07:00:12.194Z,0
2017-04-02T07:00:40.491Z,0
2017-04-02T07:01:09.445Z,0
2017-04-02T07:01:37.479Z,0
2017-04-02T07:02:06.395Z,0
2017-04-02T07:02:34.585Z,0
2017-04-02T07:03:03.462Z,0
2017-04-02T07:03:31.584Z,0
2017-04-02T07:04:00.596Z,0
2017-04-02T07:05:29.340Z,0
2017-04-02T07:05:57.407Z,0
2017-04-02T07:08:09.271Z,0
2017-04-02T07:08:37.566Z,0
2017-04-02T07:09:05.794Z,0
2017-04-02T07:09:34.741Z,0
2017-04-02T07:11:09.058Z,0
2017-04-02T07:11:37.251Z,0
2017-04-02T07:12:49.040Z,0
2017-04-02T07:13:17.125Z,0
2017-04-02T07:15:29.009Z,0
2017-04-02T07:15:57.298Z,0
2017-04-02T07:22:08.882Z,0
2017-04-02T07:22:36.993Z,0
2017-04-02T07:23:48.829Z,0
2017-04-02T07:24:17.079Z,0
2017-04-02T07:24:45.417Z,0
2017-04-02T07:25:14.424Z,0
2017-04-02T07:27:48.818Z,0
2017-04-02T07:28:16.931Z,0
2017-04-02T07:31:28.705Z,0
2017-04-02T07:31:56.913Z,0
2017-04-02T07:32:25.077Z,0
2017-04-02T07:32:54.114Z,0
2017-04-02T07:33:22.246Z,0
2017-04-02T07:33:51.160Z,0
2017-04-02T07:36:08.636Z,0
2017-04-02T07:36:36.765Z,0
2017-04-02T07:38:48.530Z,0
2017-04-02T07:39:16.740Z,0
2017-04-02T07:39:44.936Z,0
2017-04-02T07:40:13.944Z,0
2017-04-02T07:40:42.018Z,0
2017-04-02T07:41:10.968Z,0
2017-04-02T07:42:28.473Z,0
2017-04-02T07:42:56.712Z,0
2017-04-02T07:43:24.946Z,0
2017-04-02T07:43:53.787Z,0
2017-04-02T07:44:22.860Z,0
2017-04-02T07:44:51.149Z,0
2017-04-02T07:45:19.345Z,0
2017-04-02T07:45:48.273Z,0
2017-04-02T07:46:16.430Z,0
2017-04-02T07:47:28.229Z,0
2017-04-02T07:47:56.398Z,0
2017-04-02T07:49:08.234Z,0
2017-04-02T07:49:36.424Z,0
2017-04-02T07:54:48.012Z,0
2017-04-02T07:55:16.213Z,0
2017-04-02T07:56:28.135Z,0
2017-04-02T07:56:56.442Z,0
2017-04-02T07:57:24.623Z,0
2017-04-02T07:57:53.685Z,0
2017-04-02T07:58:22.554Z,0
2017-04-02T07:58:50.701Z,0
2017-04-02T07:59:18.835Z,0
2017-04-02T07:59:47.735Z,0
2017-04-02T08:00:15.866Z,0
2017-04-02T08:00:44.779Z,0
2017-04-02T08:04:07.872Z,0
2017-04-02T08:04:36.081Z,0
2017-04-02T08:06:47.914Z,0
2017-04-02T08:07:15.986Z,0
2017-04-02T08:09:27.790Z,0
2017-04-02T08:09:56.105Z,0
2017-04-02T08:10:24.247Z,0
2017-04-02T08:10:52.319Z,0
2017-04-02T08:11:20.529Z,0
2017-04-02T08:11:48.917Z,0
2017-04-02T08:12:17.702Z,0
2017-04-02T08:12:45.807Z,0
2017-04-02T08:14:57.600Z,0
2017-04-02T08:15:25.741Z,0
2017-04-02T08:20:37.391Z,0
2017-04-02T08:21:05.586Z,0
2017-04-02T08:22:17.581Z,0
2017-04-02T08:22:45.752Z,0
2017-04-02T08:24:57.506Z,0
2017-04-02T08:25:26.298Z,0
2017-04-02T08:25:54.473Z,0
2017-04-02T08:26:22.622Z,0
2017-04-02T08:26:51.565Z,0
2017-04-02T08:27:19.904Z,0
2017-04-02T08:29:37.279Z,0
2017-04-02T08:30:05.418Z,0
2017-04-02T08:30:34.218Z,0
2017-04-02T08:33:56.891Z,0
2017-04-02T08:34:25.159Z,0
2017-04-02T08:35:37.012Z,0
2017-04-02T08:36:05.894Z,0
2017-04-02T08:36:34.044Z,0
2017-04-02T08:37:03.835Z,0
2017-04-02T08:37:32.759Z,0
2017-04-02T08:38:00.990Z,0
2017-04-02T08:38:29.038Z,0
2017-04-02T08:38:57.272Z,0
2017-04-02T08:39:25.442Z,0
2017-04-02T08:39:53.628Z,0
2017-04-02T08:40:22.580Z,0
2017-04-02T08:42:56.904Z,0
2017-04-02T08:43:25.139Z,0
2017-04-02T08:43:54.141Z,0
2017-04-02T08:44:22.414Z,0
2017-04-02T08:46:56.858Z,0
2017-04-02T08:47:24.930Z,0
2017-04-02T08:48:36.807Z,0
2017-04-02T08:49:04.906Z,0
2017-04-02T08:50:16.733Z,0
2017-04-02T08:50:44.875Z,0
2017-04-02T08:51:56.770Z,0
2017-04-02T08:52:25.005Z,0
2017-04-02T08:52:53.274Z,0
2017-04-02T08:53:22.168Z,0
2017-04-02T08:53:50.208Z,0
2017-04-02T08:54:18.961Z,0
2017-04-02T08:54:47.962Z,0
2017-04-02T08:58:16.578Z,0
2017-04-02T08:58:44.767Z,0
2017-04-02T08:59:56.595Z,0
2017-04-02T09:00:24.841Z,0
2017-04-02T09:00:53.002Z,0
2017-04-02T09:01:21.976Z,0
2017-04-02T09:03:56.457Z,0
2017-04-02T09:04:24.525Z,0
2017-04-02T09:05:36.432Z,0
2017-04-02T09:06:04.486Z,0
2017-04-02T09:06:33.517Z,5
2017-04-02T09:07:01.720Z,5
2017-04-02T09:07:30.644Z,5
2017-04-02T09:08:47.583Z,5
2017-04-02T09:14:16.055Z,10
2017-04-02T09:14:44.241Z,15
2017-04-02T09:16:56.113Z,15
2017-04-02T09:17:24.397Z,15
2017-04-02T09:17:52.487Z,15
2017-04-02T09:18:20.592Z,20
2017-04-02T09:18:48.841Z,20
2017-04-02T09:19:17.025Z,20
2017-04-02T09:19:45.996Z,20
2017-04-02T09:20:14.273Z,20
2017-04-02T09:20:42.426Z,25
2017-04-02T09:21:10.455Z,25
2017-04-02T09:21:38.632Z,30
2017-04-02T09:22:49.958Z,30
2017-04-02T09:23:17.991Z,35
2017-04-02T09:23:46.942Z,35
2017-04-02T09:24:15.856Z,40
2017-04-02T09:24:44.098Z,50
2017-04-02T09:25:55.883Z,60
2017-04-02T09:26:23.955Z,65
2017-04-02T09:26:52.936Z,70
2017-04-02T09:27:21.923Z,80
2017-04-02T09:27:49.983Z,90
2017-04-02T09:28:18.290Z,90
2017-04-02T09:29:35.818Z,95
2017-04-02T09:30:03.994Z,100
2017-04-02T09:32:15.814Z,120
2017-04-02T09:32:44.254Z,130
2017-04-02T09:33:12.661Z,130
2017-04-02T09:33:40.949Z,130
2017-04-02T09:34:09.003Z,130
2017-04-02T09:34:37.173Z,130
2017-04-02T09:35:05.332Z,130
2017-04-02T09:35:33.571Z,150
2017-04-02T09:36:02.734Z,150
2017-04-02T09:36:30.877Z,155
2017-04-02T09:36:59.032Z,150
2017-04-02T09:37:28.067Z,160
2017-04-02T09:39:45.591Z,180
2017-04-02T09:40:13.694Z,180
2017-04-02T09:41:25.596Z,190
2017-04-02T09:41:53.911Z,165
2017-04-02T09:42:22.177Z,150
2017-04-02T09:42:51.089Z,155
2017-04-02T09:43:19.105Z,150
2017-04-02T09:43:48.158Z,150
2017-04-02T09:44:16.432Z,155
2017-04-02T09:44:45.439Z,155
2017-04-02T09:45:13.688Z,160
2017-04-02T09:45:41.948Z,165
2017-04-02T09:46:10.937Z,165
2017-04-02T09:48:45.315Z,175
2017-04-02T09:49:13.582Z,180
2017-04-02T09:49:41.855Z,185
2017-04-02T09:50:10.791Z,180
2017-04-02T09:50:38.871Z,180
2017-04-02T09:51:07.806Z,175
2017-04-02T09:52:25.187Z,190
2017-04-02T09:52:53.374Z,195
2017-04-02T09:56:05.206Z,220
2017-04-02T09:56:33.487Z,220
2017-04-02T09:57:01.772Z,215
2017-04-02T09:57:30.754Z,215
2017-04-02T10:00:05.105Z,235
2017-04-02T10:00:33.264Z,235
2017-04-02T10:03:44.985Z,185
2017-04-02T10:04:13.092Z,190
2017-04-02T10:06:24.860Z,265
2017-04-02T10:06:53.120Z,285
2017-04-02T10:09:04.843Z,240
2017-04-02T10:09:33.034Z,245
2017-04-02T10:11:44.832Z,265
2017-04-02T10:12:12.863Z,265
2017-04-02T10:13:24.728Z,255
2017-04-02T10:13:52.895Z,250
2017-04-02T10:16:04.709Z,300
2017-04-02T10:16:32.896Z,300
2017-04-02T10:22:44.568Z,390
2017-04-02T10:23:12.754Z,390
2017-04-02T10:23:40.861Z,385
2017-04-02T10:24:09.901Z,375
2017-04-02T10:25:44.370Z,335
2017-04-02T10:26:12.490Z,325
2017-04-02T10:26:41.504Z,325
2017-04-02T10:27:09.751Z,340
2017-04-02T10:28:44.353Z,450
2017-04-02T10:29:12.513Z,485
2017-04-02T10:31:24.258Z,460
2017-04-02T10:31:52.362Z,465
2017-04-02T10:33:04.285Z,475
2017-04-02T10:33:32.566Z,485
2017-04-02T10:34:01.610Z,465
2017-04-02T10:34:29.870Z,460
2017-04-02T10:39:03.989Z,535
2017-04-02T10:39:32.038Z,515
2017-04-02T10:40:01.050Z,485
2017-04-02T10:40:29.316Z,465
2017-04-02T10:40:57.437Z,440
2017-04-02T10:41:25.493Z,410
2017-04-02T10:41:53.845Z,380
2017-04-02T10:42:22.009Z,355
2017-04-02T10:42:51.004Z,345
2017-04-02T10:43:20.088Z,335
2017-04-02T10:43:48.314Z,325
2017-04-02T10:44:16.287Z,305
2017-04-02T10:45:45.122Z,275
2017-04-02T10:50:13.880Z,245
2017-04-02T10:50:41.979Z,250
2017-04-02T10:53:53.826Z,255
2017-04-02T10:54:21.903Z,260
2017-04-02T10:56:33.750Z,280
2017-04-02T10:57:01.828Z,285
2017-04-02T11:00:13.633Z,290
2017-04-02T11:00:41.776Z,315
2017-04-02T11:03:53.467Z,360
2017-04-02T11:04:21.771Z,375
2017-04-02T11:06:33.477Z,420
2017-04-02T11:09:13.445Z,470
2017-04-02T11:09:41.516Z,455
2017-04-02T11:10:53.326Z,415
2017-04-02T11:11:21.530Z,430
2017-04-02T11:12:33.354Z,510
2017-04-02T11:13:01.617Z,505
2017-04-02T11:13:29.931Z,485
2017-04-02T11:13:58.931Z,460
2017-04-02T11:16:33.182Z,355
2017-04-02T11:17:01.363Z,355
2017-04-02T11:18:13.227Z,355
2017-04-02T11:18:41.241Z,355
2017-04-02T11:20:53.010Z,385
2017-04-02T11:21:21.251Z,385
2017-04-02T11:22:33.118Z,375
2017-04-02T11:23:01.202Z,365
2017-04-02T11:24:13.040Z,340
2017-04-02T11:24:41.294Z,330
2017-04-02T11:25:09.557Z,325
2017-04-02T11:25:38.574Z,310
2017-04-02T11:28:12.907Z,240
2017-04-02T11:28:40.943Z,245
2017-04-02T11:29:53.012Z,295
2017-04-02T11:30:21.163Z,330
2017-04-02T11:30:49.365Z,370
2017-04-02T11:31:18.282Z,410
2017-04-02T11:31:46.358Z,460
2017-04-02T11:32:15.202Z,495
2017-04-02T11:33:32.845Z,490
2017-04-02T11:34:00.921Z,470
2017-04-02T11:36:12.761Z,430
2017-04-02T11:36:40.763Z,420
2017-04-02T11:37:52.702Z,395
2017-04-02T11:38:20.806Z,380
2017-04-02T11:39:32.726Z,350
2017-04-02T11:40:00.911Z,335
2017-04-02T11:40:29.089Z,320
2017-04-02T11:40:58.106Z,300
2017-04-02T11:42:32.553Z,270
2017-04-02T11:43:00.698Z,275
2017-04-02T11:44:12.551Z,280
2017-04-02T11:44:40.737Z,280
2017-04-02T11:48:52.490Z,350
2017-04-02T11:49:20.742Z,330
2017-04-02T11:49:48.869Z,305
2017-04-02T11:50:17.852Z,285
2017-04-02T11:51:52.412Z,300
2017-04-02T11:52:20.665Z,325
2017-04-02T11:52:48.764Z,350
2017-04-02T11:53:17.799Z,370
2017-04-02T11:54:52.287Z,475
2017-04-02T11:55:20.572Z,525
2017-04-02T11:55:48.756Z,560
2017-04-02T11:56:17.609Z,570
2017-04-02T11:57:52.083Z,560
2017-04-02T11:58:20.183Z,550
2017-04-02T11:58:49.154Z,515
2017-04-02T11:59:17.439Z,470
2017-04-02T11:59:45.687Z,415
2017-04-02T12:00:14.638Z,380
2017-04-02T12:03:32.130Z,775
2017-04-02T12:04:00.299Z,805
2017-04-02T12:07:00.195Z,660
2017-04-02T12:12:11.899Z,625
2017-04-02T12:12:40.193Z,715
2017-04-02T12:13:08.366Z,815
2017-04-02T12:13:37.369Z,890
2017-04-02T12:16:11.663Z,825
2017-04-02T12:16:40.091Z,830
2017-04-02T12:17:08.567Z,835
2017-04-02T12:18:31.696Z,845
2017-04-02T12:18:59.834Z,795
2017-04-02T12:20:11.696Z,700
2017-04-02T12:20:39.878Z,680
2017-04-02T12:21:09.003Z,680
2017-04-02T12:21:37.282Z,695
2017-04-02T12:22:05.687Z,740
2017-04-02T12:22:33.938Z,805
2017-04-02T12:23:02.768Z,850
2017-04-02T12:23:31.579Z,840
2017-04-02T12:23:59.730Z,790
2017-04-02T12:25:11.557Z,685
2017-04-02T12:25:39.788Z,675
2017-04-02T12:29:39.385Z,835
2017-04-02T12:30:08.395Z,980
2017-04-02T12:30:37.122Z,1075
2017-04-02T12:33:11.359Z,1175
2017-04-02T12:33:39.532Z,1135
2017-04-02T12:36:51.314Z,860
2017-04-02T12:37:19.614Z,890
2017-04-02T12:37:47.877Z,935
2017-04-02T12:38:16.811Z,1135
2017-04-02T12:38:45.156Z,1125
2017-04-02T12:39:13.391Z,1145
2017-04-02T12:39:42.373Z,1165
2017-04-02T12:41:11.123Z,1050
2017-04-02T12:41:39.130Z,1055
2017-04-02T12:42:08.174Z,1065
2017-04-02T12:42:36.380Z,1095
2017-04-02T12:43:04.553Z,1090
2017-04-02T12:43:33.691Z,1040
2017-04-02T12:44:01.855Z,1005
2017-04-02T12:44:30.904Z,945
2017-04-02T12:46:04.443Z,705
2017-04-02T12:46:32.618Z,690
2017-04-02T12:47:00.793Z,690
2017-04-02T12:47:29.184Z,705
2017-04-02T12:50:40.879Z,810
2017-04-02T12:51:09.180Z,785
2017-04-02T12:51:38.088Z,760
2017-04-02T12:52:06.338Z,720
2017-04-02T12:53:40.837Z,640
2017-04-02T12:54:08.984Z,635
2017-04-02T12:56:20.629Z,605
2017-04-02T12:56:48.888Z,620
2017-04-02T12:58:00.682Z,685
2017-04-02T12:58:28.852Z,690
2017-04-02T12:59:40.717Z,680
2017-04-02T13:00:08.976Z,660
2017-04-02T13:00:36.912Z,655
2017-04-02T13:01:04.931Z,655
2017-04-02T13:01:33.160Z,675
2017-04-02T13:02:50.644Z,770
2017-04-02T13:03:18.947Z,805
2017-04-02T13:03:47.158Z,840
2017-04-02T13:04:14.910Z,875
2017-04-02T13:04:43.156Z,910
2017-04-02T13:07:00.540Z,1035
2017-04-02T13:07:28.729Z,1090
2017-04-02T13:09:40.462Z,1290
2017-04-02T13:10:08.594Z,1480
2017-04-02T13:11:20.472Z,1500
2017-04-02T13:11:48.687Z,1280
2017-04-02T13:15:00.307Z,970
2017-04-02T13:15:28.318Z,935
2017-04-02T13:15:57.254Z,905
2017-04-02T13:19:20.289Z,715
2017-04-02T13:19:48.452Z,695
2017-04-02T13:22:00.209Z,660
2017-04-02T13:22:28.408Z,665
2017-04-02T13:22:56.523Z,685
2017-04-02T13:23:24.655Z,710
2017-04-02T13:23:52.920Z,735
2017-04-02T13:24:21.084Z,775
2017-04-02T13:24:49.967Z,820
2017-04-02T13:25:18.114Z,865
2017-04-02T13:26:30.043Z,1025
2017-04-02T13:26:58.281Z,1065
2017-04-02T13:29:09.896Z,1170
2017-04-02T13:29:37.963Z,1145
2017-04-02T13:30:06.971Z,1085
2017-04-02T13:30:35.115Z,1020
2017-04-02T13:31:03.249Z,950
2017-04-02T13:31:31.352Z,895
2017-04-02T13:34:00.014Z,830
2017-04-02T13:34:28.191Z,850